sensor_id;sensor_type;location;lat;lon;timestamp;pressure;altitude;pressure_sealevel;temperature;humidity
77240;BME280;66258;53.170;-2.240;2023-04-03T00:00:35;101897.31;;;12.18;56.10
77240;BME280;66258;53.170;-2.240;2023-04-03T00:03:02;101894.47;;;12.29;55.76
77240;BME280;66258;53.170;-2.240;2023-04-03T00:05:29;101892.69;;;12.09;56.15
77240;BME280;66258;53.170;-2.240;2023-04-03T00:07:57;101901.69;;;12.10;56.16
77240;BME280;66258;53.170;-2.240;2023-04-03T00:10:24;101895.97;;;11.73;56.68
77240;BME280;66258;53.170;-2.240;2023-04-03T00:12:51;101888.13;;;12.00;56.42
77240;BME280;66258;53.170;-2.240;2023-04-03T00:15:18;101895.31;;;12.20;55.91
77240;BME280;66258;53.170;-2.240;2023-04-03T00:17:44;101893.94;;;11.95;56.72
77240;BME280;66258;53.170;-2.240;2023-04-03T00:20:11;101897.84;;;12.12;55.76
77240;BME280;66258;53.170;-2.240;2023-04-03T00:22:38;101904.66;;;11.97;56.74
77240;BME280;66258;53.170;-2.240;2023-04-03T00:25:07;101897.97;;;12.01;55.95
77240;BME280;66258;53.170;-2.240;2023-04-03T00:27:36;101896.13;;;12.01;56.66
77240;BME280;66258;53.170;-2.240;2023-04-03T00:30:03;101898.44;;;11.55;57.19
77240;BME280;66258;53.170;-2.240;2023-04-03T00:32:30;101902.03;;;11.86;56.93
77240;BME280;66258;53.170;-2.240;2023-04-03T00:34:57;101903.31;;;12.22;55.88
77240;BME280;66258;53.170;-2.240;2023-04-03T00:37:24;101899.84;;;12.10;55.09
77240;BME280;66258;53.170;-2.240;2023-04-03T00:39:51;101894.53;;;11.99;56.04
77240;BME280;66258;53.170;-2.240;2023-04-03T00:42:19;101891.38;;;11.94;55.84
77240;BME280;66258;53.170;-2.240;2023-04-03T00:47:54;101900.50;;;11.93;55.80
77240;BME280;66258;53.170;-2.240;2023-04-03T00:50:22;101893.13;;;11.74;56.12
77240;BME280;66258;53.170;-2.240;2023-04-03T00:52:49;101899.06;;;11.89;56.25
77240;BME280;66258;53.170;-2.240;2023-04-03T00:55:17;101896.06;;;11.92;55.66
77240;BME280;66258;53.170;-2.240;2023-04-03T00:57:45;101896.47;;;11.87;56.21
77240;BME280;66258;53.170;-2.240;2023-04-03T01:00:15;101893.47;;;11.81;56.74
77240;BME280;66258;53.170;-2.240;2023-04-03T01:02:43;101892.91;;;11.87;56.14
77240;BME280;66258;53.170;-2.240;2023-04-03T01:05:10;101904.94;;;11.94;55.58
77240;BME280;66258;53.170;-2.240;2023-04-03T01:07:38;101895.66;;;11.96;55.73
77240;BME280;66258;53.170;-2.240;2023-04-03T01:10:07;101901.19;;;11.85;55.37
77240;BME280;66258;53.170;-2.240;2023-04-03T01:12:37;101896.38;;;11.98;55.45
77240;BME280;66258;53.170;-2.240;2023-04-03T01:15:08;101897.25;;;11.99;55.20
77240;BME280;66258;53.170;-2.240;2023-04-03T01:17:38;101897.94;;;11.70;56.13
77240;BME280;66258;53.170;-2.240;2023-04-03T01:23:25;101901.78;;;11.89;55.14
77240;BME280;66258;53.170;-2.240;2023-04-03T01:25:56;101897.25;;;11.99;55.24
77240;BME280;66258;53.170;-2.240;2023-04-03T01:28:25;101904.06;;;11.93;54.93
77240;BME280;66258;53.170;-2.240;2023-04-03T01:31:00;101901.63;;;11.60;55.83
77240;BME280;66258;53.170;-2.240;2023-04-03T01:33:31;101894.16;;;11.52;56.88
77240;BME280;66258;53.170;-2.240;2023-04-03T01:35:58;101893.69;;;11.47;56.68
77240;BME280;66258;53.170;-2.240;2023-04-03T01:38:25;101901.28;;;11.53;56.95
77240;BME280;66258;53.170;-2.240;2023-04-03T01:40:52;101887.19;;;11.59;56.74
77240;BME280;66258;53.170;-2.240;2023-04-03T01:43:19;101893.63;;;11.58;57.32
77240;BME280;66258;53.170;-2.240;2023-04-03T01:45:46;101897.13;;;11.49;56.77
77240;BME280;66258;53.170;-2.240;2023-04-03T01:48:13;101889.72;;;11.51;57.47
77240;BME280;66258;53.170;-2.240;2023-04-03T01:50:41;101904.63;;;11.66;56.84
77240;BME280;66258;53.170;-2.240;2023-04-03T01:53:08;101895.81;;;11.74;56.01
77240;BME280;66258;53.170;-2.240;2023-04-03T01:55:34;101888.66;;;11.63;56.25
77240;BME280;66258;53.170;-2.240;2023-04-03T01:58:01;101890.06;;;11.67;56.30
77240;BME280;66258;53.170;-2.240;2023-04-03T02:00:28;101894.47;;;11.59;56.69
77240;BME280;66258;53.170;-2.240;2023-04-03T02:02:55;101891.03;;;11.57;56.15
77240;BME280;66258;53.170;-2.240;2023-04-03T02:05:21;101889.00;;;11.49;56.58
77240;BME280;66258;53.170;-2.240;2023-04-03T02:07:50;101885.28;;;11.50;56.90
77240;BME280;66258;53.170;-2.240;2023-04-03T02:10:17;101887.53;;;11.45;57.10
77240;BME280;66258;53.170;-2.240;2023-04-03T02:12:43;101885.38;;;11.39;57.43
77240;BME280;66258;53.170;-2.240;2023-04-03T02:15:10;101884.81;;;11.15;58.19
77240;BME280;66258;53.170;-2.240;2023-04-03T02:17:37;101883.41;;;11.41;57.86
77240;BME280;66258;53.170;-2.240;2023-04-03T02:20:04;101890.44;;;11.53;57.32
77240;BME280;66258;53.170;-2.240;2023-04-03T02:22:31;101891.09;;;11.46;57.13
77240;BME280;66258;53.170;-2.240;2023-04-03T02:25:00;101888.94;;;11.40;57.64
77240;BME280;66258;53.170;-2.240;2023-04-03T02:27:27;101882.00;;;11.26;57.76
77240;BME280;66258;53.170;-2.240;2023-04-03T02:29:54;101883.47;;;11.30;57.87
77240;BME280;66258;53.170;-2.240;2023-04-03T02:32:20;101881.41;;;11.22;58.25
77240;BME280;66258;53.170;-2.240;2023-04-03T02:34:47;101888.81;;;11.41;57.73
77240;BME280;66258;53.170;-2.240;2023-04-03T02:37:14;101881.13;;;11.25;57.99
77240;BME280;66258;53.170;-2.240;2023-04-03T02:39:41;101880.72;;;11.51;57.35
77240;BME280;66258;53.170;-2.240;2023-04-03T02:42:09;101882.56;;;11.50;57.22
77240;BME280;66258;53.170;-2.240;2023-04-03T02:44:35;101881.22;;;11.65;56.77
77240;BME280;66258;53.170;-2.240;2023-04-03T02:47:02;101887.78;;;11.63;56.42
77240;BME280;66258;53.170;-2.240;2023-04-03T02:49:29;101885.38;;;11.69;55.76
77240;BME280;66258;53.170;-2.240;2023-04-03T02:51:56;101878.66;;;11.43;56.45
77240;BME280;66258;53.170;-2.240;2023-04-03T02:54:22;101882.06;;;11.35;57.03
77240;BME280;66258;53.170;-2.240;2023-04-03T02:56:49;101877.03;;;11.31;57.39
77240;BME280;66258;53.170;-2.240;2023-04-03T02:59:17;101871.03;;;11.27;57.30
77240;BME280;66258;53.170;-2.240;2023-04-03T03:01:44;101866.84;;;11.44;56.97
77240;BME280;66258;53.170;-2.240;2023-04-03T03:04:11;101870.56;;;11.22;57.68
77240;BME280;66258;53.170;-2.240;2023-04-03T03:06:38;101877.63;;;11.34;57.47
77240;BME280;66258;53.170;-2.240;2023-04-03T03:09:05;101878.38;;;11.36;57.10
77240;BME280;66258;53.170;-2.240;2023-04-03T03:11:32;101882.81;;;11.17;57.50
77240;BME280;66258;53.170;-2.240;2023-04-03T03:13:58;101874.59;;;11.07;58.49
77240;BME280;66258;53.170;-2.240;2023-04-03T03:16:26;101867.59;;;11.05;58.67
77240;BME280;66258;53.170;-2.240;2023-04-03T03:18:53;101870.44;;;11.03;58.46
77240;BME280;66258;53.170;-2.240;2023-04-03T03:21:21;101864.72;;;10.96;59.11
77240;BME280;66258;53.170;-2.240;2023-04-03T03:23:48;101859.53;;;10.93;59.14
77240;BME280;66258;53.170;-2.240;2023-04-03T03:26:15;101862.44;;;11.01;58.76
77240;BME280;66258;53.170;-2.240;2023-04-03T03:28:41;101857.88;;;10.81;59.73
77240;BME280;66258;53.170;-2.240;2023-04-03T03:31:08;101865.09;;;10.92;59.62
77240;BME280;66258;53.170;-2.240;2023-04-03T03:33:37;101858.94;;;11.31;58.63
77240;BME280;66258;53.170;-2.240;2023-04-03T03:36:04;101862.50;;;11.32;57.68
77240;BME280;66258;53.170;-2.240;2023-04-03T03:38:31;101868.31;;;11.27;57.43
77240;BME280;66258;53.170;-2.240;2023-04-03T03:40:57;101853.66;;;10.88;58.48
77240;BME280;66258;53.170;-2.240;2023-04-03T03:43:24;101870.16;;;10.85;59.70
77240;BME280;66258;53.170;-2.240;2023-04-03T03:45:51;101866.94;;;10.91;59.83
77240;BME280;66258;53.170;-2.240;2023-04-03T03:48:19;101862.19;;;11.05;59.30
77240;BME280;66258;53.170;-2.240;2023-04-03T03:50:47;101859.59;;;10.82;59.30
77240;BME280;66258;53.170;-2.240;2023-04-03T03:53:14;101859.19;;;10.87;59.86
77240;BME280;66258;53.170;-2.240;2023-04-03T03:55:41;101866.47;;;11.07;59.20
77240;BME280;66258;53.170;-2.240;2023-04-03T03:58:08;101864.97;;;10.93;58.91
77240;BME280;66258;53.170;-2.240;2023-04-03T04:00:35;101861.06;;;10.86;58.95
77240;BME280;66258;53.170;-2.240;2023-04-03T04:03:02;101862.75;;;10.66;60.26
77240;BME280;66258;53.170;-2.240;2023-04-03T04:05:29;101861.16;;;10.64;61.00
77240;BME280;66258;53.170;-2.240;2023-04-03T04:07:57;101859.19;;;10.87;60.54
77240;BME280;66258;53.170;-2.240;2023-04-03T04:10:24;101862.25;;;10.93;59.74
77240;BME280;66258;53.170;-2.240;2023-04-03T04:12:50;101855.44;;;10.78;59.96
77240;BME280;66258;53.170;-2.240;2023-04-03T04:15:17;101854.97;;;10.73;60.50
77240;BME280;66258;53.170;-2.240;2023-04-03T04:17:44;101853.38;;;10.71;60.85
77240;BME280;66258;53.170;-2.240;2023-04-03T04:20:11;101849.47;;;10.84;60.98
77240;BME280;66258;53.170;-2.240;2023-04-03T04:22:37;101848.72;;;10.93;60.31
77240;BME280;66258;53.170;-2.240;2023-04-03T04:25:06;101846.97;;;10.72;62.16
77240;BME280;66258;53.170;-2.240;2023-04-03T04:27:33;101848.63;;;10.84;61.83
77240;BME280;66258;53.170;-2.240;2023-04-03T04:30:00;101840.91;;;10.79;61.04
77240;BME280;66258;53.170;-2.240;2023-04-03T04:32:26;101842.63;;;10.59;61.95
77240;BME280;66258;53.170;-2.240;2023-04-03T04:34:53;101833.47;;;10.81;61.75
77240;BME280;66258;53.170;-2.240;2023-04-03T04:37:20;101835.50;;;10.79;61.26
77240;BME280;66258;53.170;-2.240;2023-04-03T04:39:47;101840.56;;;10.73;61.06
77240;BME280;66258;53.170;-2.240;2023-04-03T04:42:15;101832.78;;;10.58;62.22
77240;BME280;66258;53.170;-2.240;2023-04-03T04:44:43;101841.81;;;10.89;62.32
77240;BME280;66258;53.170;-2.240;2023-04-03T04:47:10;101840.91;;;10.79;61.56
77240;BME280;66258;53.170;-2.240;2023-04-03T04:49:37;101837.63;;;10.64;62.49
77240;BME280;66258;53.170;-2.240;2023-04-03T04:52:04;101838.50;;;10.86;62.19
77240;BME280;66258;53.170;-2.240;2023-04-03T04:54:31;101834.75;;;10.56;61.94
77240;BME280;66258;53.170;-2.240;2023-04-03T04:56:58;101842.81;;;10.67;62.72
77240;BME280;66258;53.170;-2.240;2023-04-03T04:59:26;101844.88;;;10.75;62.26
77240;BME280;66258;53.170;-2.240;2023-04-03T05:01:52;101847.97;;;10.71;62.24
77240;BME280;66258;53.170;-2.240;2023-04-03T05:04:19;101845.31;;;10.59;62.16
77240;BME280;66258;53.170;-2.240;2023-04-03T05:06:46;101851.91;;;10.66;60.81
77240;BME280;66258;53.170;-2.240;2023-04-03T05:09:13;101851.56;;;10.60;60.67
77240;BME280;66258;53.170;-2.240;2023-04-03T05:11:39;101853.25;;;10.40;61.45
77240;BME280;66258;53.170;-2.240;2023-04-03T05:14:06;101857.13;;;10.15;61.96
77240;BME280;66258;53.170;-2.240;2023-04-03T05:16:34;101860.22;;;10.11;62.52
77240;BME280;66258;53.170;-2.240;2023-04-03T05:19:01;101861.94;;;10.12;63.16
77240;BME280;66258;53.170;-2.240;2023-04-03T05:21:28;101859.97;;;10.03;63.38
77240;BME280;66258;53.170;-2.240;2023-04-03T05:23:55;101861.44;;;10.18;62.93
77240;BME280;66258;53.170;-2.240;2023-04-03T05:26:21;101865.38;;;10.14;62.96
77240;BME280;66258;53.170;-2.240;2023-04-03T05:28:48;101864.75;;;10.10;62.80
77240;BME280;66258;53.170;-2.240;2023-04-03T05:31:16;101870.66;;;10.04;62.82
77240;BME280;66258;53.170;-2.240;2023-04-03T05:33:44;101866.03;;;9.95;63.15
77240;BME280;66258;53.170;-2.240;2023-04-03T05:36:11;101869.22;;;9.89;63.43
77240;BME280;66258;53.170;-2.240;2023-04-03T05:38:38;101879.06;;;9.68;64.63
77240;BME280;66258;53.170;-2.240;2023-04-03T05:41:06;101876.25;;;9.69;64.51
77240;BME280;66258;53.170;-2.240;2023-04-03T05:43:33;101872.91;;;9.65;64.50
77240;BME280;66258;53.170;-2.240;2023-04-03T05:45:59;101879.06;;;9.56;65.00
77240;BME280;66258;53.170;-2.240;2023-04-03T05:48:26;101875.25;;;9.70;64.36
77240;BME280;66258;53.170;-2.240;2023-04-03T05:50:54;101871.94;;;9.44;65.10
77240;BME280;66258;53.170;-2.240;2023-04-03T05:53:26;101872.66;;;9.24;65.75
77240;BME280;66258;53.170;-2.240;2023-04-03T05:55:53;101875.97;;;9.39;66.91
77240;BME280;66258;53.170;-2.240;2023-04-03T05:58:20;101876.59;;;9.31;67.28
77240;BME280;66258;53.170;-2.240;2023-04-03T06:00:46;101877.81;;;9.38;67.27
77240;BME280;66258;53.170;-2.240;2023-04-03T06:03:13;101889.50;;;9.61;67.60
77240;BME280;66258;53.170;-2.240;2023-04-03T06:05:40;101876.72;;;9.85;67.23
77240;BME280;66258;53.170;-2.240;2023-04-03T06:08:08;101878.78;;;10.04;67.11
77240;BME280;66258;53.170;-2.240;2023-04-03T06:10:35;101880.38;;;10.07;68.48
77240;BME280;66258;53.170;-2.240;2023-04-03T06:13:02;101885.91;;;10.16;69.94
77240;BME280;66258;53.170;-2.240;2023-04-03T06:15:29;101874.25;;;10.59;70.33
77240;BME280;66258;53.170;-2.240;2023-04-03T06:17:56;101883.19;;;10.91;70.52
77240;BME280;66258;53.170;-2.240;2023-04-03T06:20:23;101883.28;;;11.22;70.77
77240;BME280;66258;53.170;-2.240;2023-04-03T06:22:49;101877.88;;;11.52;70.36
77240;BME280;66258;53.170;-2.240;2023-04-03T06:25:22;101888.81;;;11.71;69.25
77240;BME280;66258;53.170;-2.240;2023-04-03T06:27:48;101880.06;;;11.58;69.31
77240;BME280;66258;53.170;-2.240;2023-04-03T06:30:15;101885.06;;;11.84;68.41
77240;BME280;66258;53.170;-2.240;2023-04-03T06:32:42;101883.03;;;12.26;67.54
77240;BME280;66258;53.170;-2.240;2023-04-03T06:35:09;101889.91;;;12.39;65.68
77240;BME280;66258;53.170;-2.240;2023-04-03T06:37:36;101889.09;;;12.78;64.04
77240;BME280;66258;53.170;-2.240;2023-04-03T06:40:03;101889.38;;;13.03;61.45
77240;BME280;66258;53.170;-2.240;2023-04-03T06:42:32;101893.22;;;13.20;59.06
77240;BME280;66258;53.170;-2.240;2023-04-03T06:44:58;101891.91;;;13.15;58.25
77240;BME280;66258;53.170;-2.240;2023-04-03T06:47:25;101894.03;;;13.87;56.71
77240;BME280;66258;53.170;-2.240;2023-04-03T06:49:52;101891.59;;;13.84;55.35
77240;BME280;66258;53.170;-2.240;2023-04-03T06:52:19;101893.72;;;14.17;54.25
77240;BME280;66258;53.170;-2.240;2023-04-03T06:54:46;101896.00;;;14.22;53.09
77240;BME280;66258;53.170;-2.240;2023-04-03T06:57:12;101898.41;;;14.25;52.71
77240;BME280;66258;53.170;-2.240;2023-04-03T06:59:41;101900.34;;;14.77;52.28
77240;BME280;66258;53.170;-2.240;2023-04-03T07:02:10;101901.25;;;15.22;50.90
77240;BME280;66258;53.170;-2.240;2023-04-03T07:04:38;101892.03;;;15.66;49.15
77240;BME280;66258;53.170;-2.240;2023-04-03T07:07:05;101895.00;;;15.73;48.24
77240;BME280;66258;53.170;-2.240;2023-04-03T07:09:32;101890.75;;;15.53;48.32
77240;BME280;66258;53.170;-2.240;2023-04-03T07:11:58;101895.75;;;15.39;48.28
77240;BME280;66258;53.170;-2.240;2023-04-03T07:14:25;101893.25;;;15.46;47.71
77240;BME280;66258;53.170;-2.240;2023-04-03T07:16:53;101892.66;;;15.34;48.42
77240;BME280;66258;53.170;-2.240;2023-04-03T07:19:20;101882.31;;;16.06;47.72
77240;BME280;66258;53.170;-2.240;2023-04-03T07:21:47;101889.31;;;16.59;46.02
77240;BME280;66258;53.170;-2.240;2023-04-03T07:24:13;101900.13;;;16.68;45.67
77240;BME280;66258;53.170;-2.240;2023-04-03T07:26:42;101896.22;;;16.79;45.86
77240;BME280;66258;53.170;-2.240;2023-04-03T07:29:09;101900.00;;;16.78;45.08
77240;BME280;66258;53.170;-2.240;2023-04-03T07:31:35;101894.44;;;16.03;45.64
77240;BME280;66258;53.170;-2.240;2023-04-03T07:34:04;101884.72;;;15.23;47.37
77240;BME280;66258;53.170;-2.240;2023-04-03T07:36:30;101888.34;;;15.75;47.33
77240;BME280;66258;53.170;-2.240;2023-04-03T07:38:57;101895.06;;;16.31;46.39
77240;BME280;66258;53.170;-2.240;2023-04-03T07:41:24;101900.84;;;16.95;44.86
77240;BME280;66258;53.170;-2.240;2023-04-03T07:43:50;101897.56;;;16.67;45.05
77240;BME280;66258;53.170;-2.240;2023-04-03T07:46:17;101909.56;;;16.98;44.90
77240;BME280;66258;53.170;-2.240;2023-04-03T07:48:44;101904.59;;;17.42;44.79
77240;BME280;66258;53.170;-2.240;2023-04-03T07:51:12;101902.56;;;17.12;43.89
77240;BME280;66258;53.170;-2.240;2023-04-03T07:53:39;101888.25;;;16.35;45.19
77240;BME280;66258;53.170;-2.240;2023-04-03T07:56:06;101889.03;;;16.11;45.79
77240;BME280;66258;53.170;-2.240;2023-04-03T07:58:33;101885.53;;;15.41;46.78
77240;BME280;66258;53.170;-2.240;2023-04-03T08:01:00;101886.56;;;15.58;47.50
77240;BME280;66258;53.170;-2.240;2023-04-03T08:03:27;101883.44;;;15.87;47.10
77240;BME280;66258;53.170;-2.240;2023-04-03T08:05:54;101889.91;;;16.28;45.78
77240;BME280;66258;53.170;-2.240;2023-04-03T08:08:22;101890.56;;;16.72;45.61
77240;BME280;66258;53.170;-2.240;2023-04-03T08:10:50;101890.59;;;17.21;44.90
77240;BME280;66258;53.170;-2.240;2023-04-03T08:13:17;101885.53;;;15.93;45.45
77240;BME280;66258;53.170;-2.240;2023-04-03T08:15:43;101884.00;;;15.65;46.79
77240;BME280;66258;53.170;-2.240;2023-04-03T08:18:10;101889.03;;;16.78;46.61
77240;BME280;66258;53.170;-2.240;2023-04-03T08:20:38;101883.41;;;16.21;44.98
77240;BME280;66258;53.170;-2.240;2023-04-03T08:23:05;101885.41;;;16.61;45.53
77240;BME280;66258;53.170;-2.240;2023-04-03T08:25:33;101889.09;;;16.36;44.81
77240;BME280;66258;53.170;-2.240;2023-04-03T08:28:00;101885.56;;;16.60;44.75
77240;BME280;66258;53.170;-2.240;2023-04-03T08:30:27;101888.69;;;16.14;44.24
77240;BME280;66258;53.170;-2.240;2023-04-03T08:32:53;101881.69;;;16.12;44.68
77240;BME280;66258;53.170;-2.240;2023-04-03T08:35:20;101892.81;;;16.93;43.94
77240;BME280;66258;53.170;-2.240;2023-04-03T08:37:47;101892.47;;;17.12;43.66
77240;BME280;66258;53.170;-2.240;2023-04-03T08:40:16;101898.41;;;17.57;42.68
77240;BME280;66258;53.170;-2.240;2023-04-03T08:42:54;101895.81;;;17.71;41.90
77240;BME280;66258;53.170;-2.240;2023-04-03T08:45:30;101898.91;;;17.68;41.29
77240;BME280;66258;53.170;-2.240;2023-04-03T08:48:04;101905.31;;;18.08;40.51
77240;BME280;66258;53.170;-2.240;2023-04-03T08:50:36;101904.94;;;18.11;40.30
77240;BME280;66258;53.170;-2.240;2023-04-03T08:53:06;101902.63;;;18.31;40.00
77240;BME280;66258;53.170;-2.240;2023-04-03T08:55:40;101903.63;;;18.30;39.95
77240;BME280;66258;53.170;-2.240;2023-04-03T08:58:12;101896.50;;;17.73;39.90
77240;BME280;66258;53.170;-2.240;2023-04-03T09:00:45;101904.75;;;17.65;40.34
77240;BME280;66258;53.170;-2.240;2023-04-03T09:03:14;101915.03;;;18.10;40.89
77240;BME280;66258;53.170;-2.240;2023-04-03T09:05:47;101909.22;;;17.42;40.55
77240;BME280;66258;53.170;-2.240;2023-04-03T09:08:22;101904.78;;;17.33;41.27
77240;BME280;66258;53.170;-2.240;2023-04-03T09:10:53;101895.50;;;17.50;41.37
77240;BME280;66258;53.170;-2.240;2023-04-03T09:13:32;101901.16;;;18.12;40.29
77240;BME280;66258;53.170;-2.240;2023-04-03T09:16:02;101899.88;;;18.70;39.26
77240;BME280;66258;53.170;-2.240;2023-04-03T09:18:39;101899.09;;;19.21;38.33
77240;BME280;66258;53.170;-2.240;2023-04-03T09:21:14;101905.56;;;19.66;37.61
77240;BME280;66258;53.170;-2.240;2023-04-03T09:23:45;101898.53;;;19.11;37.88
77240;BME280;66258;53.170;-2.240;2023-04-03T09:26:17;101901.13;;;19.05;38.61
77240;BME280;66258;53.170;-2.240;2023-04-03T09:28:46;101905.94;;;18.80;38.72
77240;BME280;66258;53.170;-2.240;2023-04-03T09:31:20;101901.78;;;18.61;38.57
77240;BME280;66258;53.170;-2.240;2023-04-03T09:33:49;101892.06;;;18.19;38.90
77240;BME280;66258;53.170;-2.240;2023-04-03T09:36:38;101889.97;;;18.52;38.33
77240;BME280;66258;53.170;-2.240;2023-04-03T09:39:06;101894.00;;;18.96;38.10
77240;BME280;66258;53.170;-2.240;2023-04-03T09:41:35;101882.84;;;19.72;37.47
77240;BME280;66258;53.170;-2.240;2023-04-03T09:44:20;101884.09;;;20.35;36.69
77240;BME280;66258;53.170;-2.240;2023-04-03T09:46:47;101893.84;;;20.52;35.39
77240;BME280;66258;53.170;-2.240;2023-04-03T09:49:14;101892.78;;;19.88;35.75
77240;BME280;66258;53.170;-2.240;2023-04-03T09:51:41;101886.97;;;19.98;36.39
77240;BME280;66258;53.170;-2.240;2023-04-03T09:54:41;101890.22;;;19.86;37.12
77240;BME280;66258;53.170;-2.240;2023-04-03T09:57:11;101884.94;;;19.33;37.00
77240;BME280;66258;53.170;-2.240;2023-04-03T09:59:45;101884.66;;;19.05;37.69
77240;BME280;66258;53.170;-2.240;2023-04-03T10:02:23;101879.59;;;18.09;38.23
77240;BME280;66258;53.170;-2.240;2023-04-03T10:04:54;101885.47;;;17.98;38.81
77240;BME280;66258;53.170;-2.240;2023-04-03T10:07:37;101875.88;;;18.02;38.76
77240;BME280;66258;53.170;-2.240;2023-04-03T10:10:17;101870.66;;;17.76;39.82
77240;BME280;66258;53.170;-2.240;2023-04-03T10:12:44;101875.28;;;17.67;39.91
77240;BME280;66258;53.170;-2.240;2023-04-03T10:15:14;101875.94;;;17.85;40.05
77240;BME280;66258;53.170;-2.240;2023-04-03T10:17:51;101884.28;;;18.31;40.14
77240;BME280;66258;53.170;-2.240;2023-04-03T10:20:27;101885.53;;;18.60;39.33
77240;BME280;66258;53.170;-2.240;2023-04-03T10:23:03;101886.38;;;18.83;38.99
77240;BME280;66258;53.170;-2.240;2023-04-03T10:25:40;101886.53;;;18.59;37.98
77240;BME280;66258;53.170;-2.240;2023-04-03T10:28:12;101882.78;;;18.82;38.17
77240;BME280;66258;53.170;-2.240;2023-04-03T10:30:48;101890.34;;;19.03;38.60
77240;BME280;66258;53.170;-2.240;2023-04-03T10:33:27;101891.81;;;19.51;38.39
77240;BME280;66258;53.170;-2.240;2023-04-03T10:36:06;101888.06;;;19.44;37.24
77240;BME280;66258;53.170;-2.240;2023-04-03T10:38:42;101896.06;;;18.94;37.65
77240;BME280;66258;53.170;-2.240;2023-04-03T10:41:13;101893.41;;;18.85;38.49
77240;BME280;66258;53.170;-2.240;2023-04-03T10:43:50;101876.72;;;18.33;38.68
77240;BME280;66258;53.170;-2.240;2023-04-03T10:46:25;101882.13;;;18.49;39.75
77240;BME280;66258;53.170;-2.240;2023-04-03T10:49:09;101883.19;;;18.94;38.46
77240;BME280;66258;53.170;-2.240;2023-04-03T10:51:41;101885.69;;;19.27;37.45
77240;BME280;66258;53.170;-2.240;2023-04-03T10:54:12;101879.84;;;19.07;37.70
77240;BME280;66258;53.170;-2.240;2023-04-03T10:56:40;101891.13;;;19.49;38.09
77240;BME280;66258;53.170;-2.240;2023-04-03T10:59:21;101884.22;;;19.98;37.09
77240;BME280;66258;53.170;-2.240;2023-04-03T11:01:55;101882.25;;;19.77;36.75
77240;BME280;66258;53.170;-2.240;2023-04-03T11:04:27;101875.97;;;19.98;37.25
77240;BME280;66258;53.170;-2.240;2023-04-03T11:07:01;101872.97;;;18.88;37.55
77240;BME280;66258;53.170;-2.240;2023-04-03T11:09:31;101873.34;;;19.22;38.11
77240;BME280;66258;53.170;-2.240;2023-04-03T11:12:02;101864.16;;;18.93;38.54
77240;BME280;66258;53.170;-2.240;2023-04-03T11:14:32;101863.31;;;19.52;38.78
77240;BME280;66258;53.170;-2.240;2023-04-03T11:17:13;101869.88;;;20.17;37.83
77240;BME280;66258;53.170;-2.240;2023-04-03T11:19:46;101863.34;;;20.18;37.39
77240;BME280;66258;53.170;-2.240;2023-04-03T11:22:22;101867.88;;;20.40;36.81
77240;BME280;66258;53.170;-2.240;2023-04-03T11:24:57;101863.91;;;19.40;37.21
77240;BME280;66258;53.170;-2.240;2023-04-03T11:27:27;101860.50;;;19.00;38.39
77240;BME280;66258;53.170;-2.240;2023-04-03T11:30:06;101865.06;;;19.45;37.77
77240;BME280;66258;53.170;-2.240;2023-04-03T11:33:03;101866.44;;;19.94;37.98
77240;BME280;66258;53.170;-2.240;2023-04-03T11:35:33;101866.16;;;20.54;37.15
77240;BME280;66258;53.170;-2.240;2023-04-03T11:38:02;101856.00;;;20.97;36.29
77240;BME280;66258;53.170;-2.240;2023-04-03T11:40:33;101858.59;;;20.63;35.29
77240;BME280;66258;53.170;-2.240;2023-04-03T11:43:06;101858.97;;;20.74;35.57
77240;BME280;66258;53.170;-2.240;2023-04-03T11:45:40;101864.28;;;21.04;35.33
77240;BME280;66258;53.170;-2.240;2023-04-03T11:48:43;101858.69;;;20.33;35.83
77240;BME280;66258;53.170;-2.240;2023-04-03T11:51:38;101849.16;;;20.00;36.41
77240;BME280;66258;53.170;-2.240;2023-04-03T11:57:43;101852.28;;;21.33;34.90
77240;BME280;66258;53.170;-2.240;2023-04-03T12:00:49;101855.31;;;21.44;34.19
77240;BME280;66258;53.170;-2.240;2023-04-03T12:10:17;101846.53;;;22.51;32.59
77240;BME280;66258;53.170;-2.240;2023-04-03T12:13:00;101854.00;;;22.70;32.59
77240;BME280;66258;53.170;-2.240;2023-04-03T12:15:49;101842.63;;;20.73;33.26
77240;BME280;66258;53.170;-2.240;2023-04-03T12:21:17;101824.78;;;20.90;34.31
77240;BME280;66258;53.170;-2.240;2023-04-03T12:24:00;101833.34;;;21.51;34.62
77240;BME280;66258;53.170;-2.240;2023-04-03T12:26:34;101817.66;;;22.47;32.28
77240;BME280;66258;53.170;-2.240;2023-04-03T12:29:18;101823.19;;;23.72;31.87
77240;BME280;66258;53.170;-2.240;2023-04-03T12:31:57;101821.38;;;24.80;30.63
77240;BME280;66258;53.170;-2.240;2023-04-03T12:34:48;101819.97;;;23.82;29.66
77240;BME280;66258;53.170;-2.240;2023-04-03T12:37:32;101812.22;;;23.19;30.69
77240;BME280;66258;53.170;-2.240;2023-04-03T12:40:10;101808.09;;;22.36;30.17
77240;BME280;66258;53.170;-2.240;2023-04-03T12:43:02;101810.03;;;22.55;31.42
77240;BME280;66258;53.170;-2.240;2023-04-03T12:45:40;101803.31;;;22.91;30.74
77240;BME280;66258;53.170;-2.240;2023-04-03T12:48:14;101804.81;;;23.07;31.47
77240;BME280;66258;53.170;-2.240;2023-04-03T12:50:43;101792.63;;;23.54;30.91
77240;BME280;66258;53.170;-2.240;2023-04-03T12:53:14;101790.22;;;23.71;29.63
77240;BME280;66258;53.170;-2.240;2023-04-03T12:55:43;101780.47;;;22.29;30.89
77240;BME280;66258;53.170;-2.240;2023-04-03T12:58:22;101788.81;;;21.88;31.72
77240;BME280;66258;53.170;-2.240;2023-04-03T13:00:59;101782.59;;;21.73;32.37
77240;BME280;66258;53.170;-2.240;2023-04-03T13:03:27;101769.25;;;20.58;32.77
77240;BME280;66258;53.170;-2.240;2023-04-03T13:05:57;101773.19;;;20.71;33.73
77240;BME280;66258;53.170;-2.240;2023-04-03T13:08:25;101770.91;;;20.53;33.20
77240;BME280;66258;53.170;-2.240;2023-04-03T13:10:55;101768.19;;;20.59;34.14
77240;BME280;66258;53.170;-2.240;2023-04-03T13:13:24;101764.13;;;20.77;33.32